Soaring Guidance
Issued by NWS Reno, NV

Home | Current Version | Previous Version | Text Only | Print | Product List | Glossary On
Versions: 1 2 3 4 5 6
905
UXUS97 KREV 211359
SRGREV

SOARING FORECAST
NATIONAL WEATHER SERVICE - RENO NV
700 AM PDT THU MAY 21 2015

THIS SOARING FORECAST IS FOR THE EASTERN SIERRA AND WESTERN NEVADA
WITH SPECIFIC INDICES FOR THE GREATER RENO AREA.

THIS FORECAST IS PREPARED DAILY BY 700 AM AND IS NOT UPDATED.

FOR CURRENT FLIGHT CONDITIONS...FORECASTS...AND ADVISORIES...ACCESS
YOUR LOCAL BRIEFING OUTLET OR FLIGHT SERVICE STATION.

*******************************************************************
LOCAL INDICES FOR RENO:                   TODAY     YESTERDAY
MAXIMUM TEMPERATURE AT RENO...(DEG F)...     65          66
TRIGGER TEMPERATURE...........(DEG F)...     55          55
   EXCEEDED YESTERDAY BY 855 AM PDT
MAXIMUM ALTITUDE..............(FT MSL)..   13900       14700
SOARING INDEX.................(FPM).....    747         831
  FORECASTED K-INDEX.........VALID 18Z....   28          29
  FORECASTED K-INDEX.........VALID 00Z....   30          31
  FORECASTED LIFTED INDEX....VALID 18Z....    2           0
  FORECASTED LIFTED INDEX....VALID 00Z....   -1          -2

AFTERNOON WINDS ALOFT FORECAST
MSL (FT) WIND/TEMP
9000  9900/+04
10000 9902/+01
12000 0605/-04
14000 0706/-08
16000 0808/-12
18000 0912/-17
24000 1012/-29
30000 1105/-46
34000 0405/-55
39000 9900/-57

SLIDE MOUNTAIN DATA:
     DATE       TIME     TEMP  DEWPT   RH         WIND (MPH)
                        (F)   (F)           | DIR  SPEED GUST
2015-05-21    06:00      30    30    100    | 097   10   13
2015-05-21    05:50      30    30    100    | 092   11   14
2015-05-21    05:30      30    30    100    | 092   12   16
2015-05-21    05:20      31    31    100    | 102   11   14

RENO TAF FORECAST:
KRNO 211120Z 2112/2212 VRB04KT P6SM FEW060 BKN080
     FM212000 02007KT P6SM VCSH SCT050 BKN090
     FM220000 29012G18KT P6SM -SHRA BKN045 OVC060
     FM220600 VRB04KT P6SM BKN060

CARSON CITY TAF FORECAST:
KCXP 211120Z 2112/2212 VRB04KT P6SM FEW050 BKN070
     FM211900 07008KT P6SM VCSH BKN050 BKN080
     FM220000 29009KT P6SM -SHRA BKN040 OVC050
     FM220600 VRB04KT P6SM BKN040

OUTLOOK FOR THE RENO-CARSON CITY-MINDEN AREA:
.FRIDAY...CHANCE OF SHOWERS IN THE MORNING...THEN SHOWERS LIKELY
AND SLIGHT CHANCE OF THUNDERSTORMS IN THE AFTERNOON. HIGHS 63 TO
68. NORTHWEST WINDS 10 TO 15 MPH.

SUNRISE AND SUNSET
MAY 21 2015...........SUNRISE   540 AM PDT   SUNSET   812 PM PDT
MAY 22 2015...........SUNRISE   540 AM PDT   SUNSET   812 PM PDT



USA.gov is the U.S. government's official web portal to all federal, state and local government web resources and services.